Terminal Aerodrome Forecast
Issued by NWS San Angelo, TX

Home | Current Version | Previous Version | Text Only | Print | Product List | Glossary On
Versions: 1 2 3 4 5 6 7 8 9 10 11 12
000
FTUS44 KSJT 302300
TAFSJT
TAF
KSJT 302326Z 3100/3124 08009KT P6SM BKN050
     FM310400 10007KT P6SM OVC015
     FM310800 10008KT 5SM -RA BR OVC010
     FM311000 13010KT 3SM RA BR OVC007=

USA.gov is the U.S. government's official web portal to all federal, state and local government web resources and services.